sensor_id;sensor_type;location;lat;lon;timestamp;P1;durP1;ratioP1;P2;durP2;ratioP2
15104;SDS011;7653;48.994;9.212;2022-11-21T09:17:32;3.33;;;0.83;;
15104;SDS011;7653;48.994;9.212;2022-11-21T09:20:17;1.50;;;0.53;;
15104;SDS011;7653;48.994;9.212;2022-11-21T09:22:44;4.30;;;1.50;;
15104;SDS011;7653;48.994;9.212;2022-11-21T12:29:26;2.10;;;1.00;;
15104;SDS011;7653;48.994;9.212;2022-11-21T12:32:20;4.33;;;1.00;;
15104;SDS011;7653;48.994;9.212;2022-11-21T12:48:07;3.07;;;1.00;;
15104;SDS011;7653;48.994;9.212;2022-11-21T12:57:09;3.63;;;1.20;;
15104;SDS011;7653;48.994;9.212;2022-11-21T13:05:40;2.60;;;0.80;;
15104;SDS011;7653;48.994;9.212;2022-11-21T13:08:20;1.00;;;0.63;;
15104;SDS011;7653;48.994;9.212;2022-11-21T13:14:11;5.37;;;0.97;;
15104;SDS011;7653;48.994;9.212;2022-11-21T13:16:51;3.77;;;1.03;;
15104;SDS011;7653;48.994;9.212;2022-11-21T13:27:46;3.57;;;1.03;;
15104;SDS011;7653;48.994;9.212;2022-11-21T13:32:43;3.57;;;1.03;;
15104;SDS011;7653;48.994;9.212;2022-11-21T13:45:45;3.33;;;1.17;;
15104;SDS011;7653;48.994;9.212;2022-11-21T13:55:55;4.40;;;1.00;;
15104;SDS011;7653;48.994;9.212;2022-11-21T14:09:47;4.10;;;1.33;;
15104;SDS011;7653;48.994;9.212;2022-11-21T14:12:25;2.70;;;1.43;;
15104;SDS011;7653;48.994;9.212;2022-11-21T14:17:35;3.13;;;1.23;;
15104;SDS011;7653;48.994;9.212;2022-11-21T14:20:12;2.87;;;1.00;;
15104;SDS011;7653;48.994;9.212;2022-11-21T14:22:58;3.70;;;1.40;;
15104;SDS011;7653;48.994;9.212;2022-11-21T14:25:31;4.07;;;1.17;;
15104;SDS011;7653;48.994;9.212;2022-11-21T14:28:10;2.20;;;1.10;;
15104;SDS011;7653;48.994;9.212;2022-11-21T14:30:41;2.40;;;1.20;;
15104;SDS011;7653;48.994;9.212;2022-11-21T14:33:21;3.80;;;1.23;;
15104;SDS011;7653;48.994;9.212;2022-11-21T14:36:05;2.20;;;1.20;;
15104;SDS011;7653;48.994;9.212;2022-11-21T14:38:33;3.87;;;1.30;;
15104;SDS011;7653;48.994;9.212;2022-11-21T14:43:40;3.83;;;1.20;;
15104;SDS011;7653;48.994;9.212;2022-11-21T14:46:13;2.47;;;1.10;;
15104;SDS011;7653;48.994;9.212;2022-11-21T14:48:39;3.10;;;1.03;;
15104;SDS011;7653;48.994;9.212;2022-11-21T14:51:07;3.13;;;1.27;;
15104;SDS011;7653;48.994;9.212;2022-11-21T14:53:38;4.50;;;1.27;;
15104;SDS011;7653;48.994;9.212;2022-11-21T14:56:09;2.33;;;1.00;;
15104;SDS011;7653;48.994;9.212;2022-11-21T14:58:58;3.13;;;0.83;;
15104;SDS011;7653;48.994;9.212;2022-11-21T15:01:28;2.80;;;1.37;;
15104;SDS011;7653;48.994;9.212;2022-11-21T15:03:58;3.37;;;1.20;;
15104;SDS011;7653;48.994;9.212;2022-11-21T15:06:25;1.37;;;0.87;;
15104;SDS011;7653;48.994;9.212;2022-11-21T15:08:55;2.87;;;1.40;;
15104;SDS011;7653;48.994;9.212;2022-11-21T15:11:27;2.87;;;1.10;;
15104;SDS011;7653;48.994;9.212;2022-11-21T15:13:58;4.23;;;1.53;;
15104;SDS011;7653;48.994;9.212;2022-11-21T15:16:28;3.60;;;1.10;;
15104;SDS011;7653;48.994;9.212;2022-11-21T15:18:54;1.67;;;0.97;;
15104;SDS011;7653;48.994;9.212;2022-11-21T15:21:20;4.63;;;1.40;;
15104;SDS011;7653;48.994;9.212;2022-11-21T15:23:46;3.53;;;1.50;;
15104;SDS011;7653;48.994;9.212;2022-11-21T15:26:31;2.90;;;1.20;;
15104;SDS011;7653;48.994;9.212;2022-11-21T15:28:59;3.43;;;1.10;;
15104;SDS011;7653;48.994;9.212;2022-11-21T15:31:26;4.03;;;1.73;;
15104;SDS011;7653;48.994;9.212;2022-11-21T15:36:22;2.37;;;1.20;;
15104;SDS011;7653;48.994;9.212;2022-11-21T15:38:52;5.80;;;2.47;;
15104;SDS011;7653;48.994;9.212;2022-11-21T15:41:34;3.60;;;1.87;;
15104;SDS011;7653;48.994;9.212;2022-11-21T15:46:30;5.73;;;3.07;;
15104;SDS011;7653;48.994;9.212;2022-11-21T15:49:06;5.37;;;2.53;;
15104;SDS011;7653;48.994;9.212;2022-11-21T15:51:34;7.57;;;3.53;;
15104;SDS011;7653;48.994;9.212;2022-11-21T15:54:03;7.00;;;3.20;;
15104;SDS011;7653;48.994;9.212;2022-11-21T15:56:30;5.20;;;2.97;;
15104;SDS011;7653;48.994;9.212;2022-11-21T15:58:56;5.23;;;2.53;;
15104;SDS011;7653;48.994;9.212;2022-11-21T16:01:22;3.30;;;1.90;;
15104;SDS011;7653;48.994;9.212;2022-11-21T16:03:53;6.20;;;2.33;;
15104;SDS011;7653;48.994;9.212;2022-11-21T16:06:21;13.57;;;7.67;;
15104;SDS011;7653;48.994;9.212;2022-11-21T16:08:50;18.50;;;8.40;;
15104;SDS011;7653;48.994;9.212;2022-11-21T16:11:29;19.13;;;9.90;;
15104;SDS011;7653;48.994;9.212;2022-11-21T16:13:57;9.43;;;4.67;;
15104;SDS011;7653;48.994;9.212;2022-11-21T16:16:28;10.37;;;5.60;;
15104;SDS011;7653;48.994;9.212;2022-11-21T16:18:55;6.23;;;2.77;;
15104;SDS011;7653;48.994;9.212;2022-11-21T16:21:22;8.03;;;4.50;;
15104;SDS011;7653;48.994;9.212;2022-11-21T16:23:48;7.23;;;5.03;;
15104;SDS011;7653;48.994;9.212;2022-11-21T16:26:14;10.10;;;4.90;;
15104;SDS011;7653;48.994;9.212;2022-11-21T16:28:40;12.33;;;7.33;;
15104;SDS011;7653;48.994;9.212;2022-11-21T16:31:06;13.63;;;7.60;;
15104;SDS011;7653;48.994;9.212;2022-11-21T16:33:41;7.23;;;3.30;;
15104;SDS011;7653;48.994;9.212;2022-11-21T16:36:07;2.17;;;1.40;;
15104;SDS011;7653;48.994;9.212;2022-11-21T16:38:32;5.40;;;2.93;;
15104;SDS011;7653;48.994;9.212;2022-11-21T16:40:59;5.57;;;2.57;;
15104;SDS011;7653;48.994;9.212;2022-11-21T16:43:27;4.33;;;2.40;;
15104;SDS011;7653;48.994;9.212;2022-11-21T16:45:54;3.93;;;1.80;;
15104;SDS011;7653;48.994;9.212;2022-11-21T16:48:21;3.43;;;1.93;;
15104;SDS011;7653;48.994;9.212;2022-11-21T16:50:48;4.27;;;2.20;;
15104;SDS011;7653;48.994;9.212;2022-11-21T16:53:14;6.50;;;2.33;;
15104;SDS011;7653;48.994;9.212;2022-11-21T16:55:40;6.53;;;2.60;;
15104;SDS011;7653;48.994;9.212;2022-11-21T16:58:06;4.20;;;2.00;;
15104;SDS011;7653;48.994;9.212;2022-11-21T17:00:32;3.73;;;1.60;;
15104;SDS011;7653;48.994;9.212;2022-11-21T17:02:58;3.67;;;1.93;;
15104;SDS011;7653;48.994;9.212;2022-11-21T17:05:24;3.47;;;1.77;;
15104;SDS011;7653;48.994;9.212;2022-11-21T17:07:50;3.10;;;2.10;;
15104;SDS011;7653;48.994;9.212;2022-11-21T17:10:15;4.63;;;2.43;;
15104;SDS011;7653;48.994;9.212;2022-11-21T17:12:41;3.33;;;1.93;;
15104;SDS011;7653;48.994;9.212;2022-11-21T17:15:12;4.27;;;2.47;;
15104;SDS011;7653;48.994;9.212;2022-11-21T17:17:39;4.03;;;2.03;;
15104;SDS011;7653;48.994;9.212;2022-11-21T17:20:06;3.50;;;2.10;;
15104;SDS011;7653;48.994;9.212;2022-11-21T17:22:33;3.03;;;1.83;;
15104;SDS011;7653;48.994;9.212;2022-11-21T17:24:59;5.17;;;2.00;;
15104;SDS011;7653;48.994;9.212;2022-11-21T17:27:25;6.67;;;2.40;;
15104;SDS011;7653;48.994;9.212;2022-11-21T17:29:51;4.87;;;2.30;;
15104;SDS011;7653;48.994;9.212;2022-11-21T17:32:16;3.97;;;2.60;;
15104;SDS011;7653;48.994;9.212;2022-11-21T17:34:43;4.67;;;2.60;;
15104;SDS011;7653;48.994;9.212;2022-11-21T17:37:08;6.77;;;2.37;;
15104;SDS011;7653;48.994;9.212;2022-11-21T17:39:34;7.73;;;2.40;;
15104;SDS011;7653;48.994;9.212;2022-11-21T17:42:01;3.97;;;2.10;;
15104;SDS011;7653;48.994;9.212;2022-11-21T17:44:33;6.03;;;2.13;;
15104;SDS011;7653;48.994;9.212;2022-11-21T17:46:59;5.47;;;2.40;;
15104;SDS011;7653;48.994;9.212;2022-11-21T17:49:26;4.30;;;2.80;;
15104;SDS011;7653;48.994;9.212;2022-11-21T17:51:53;5.33;;;2.90;;
15104;SDS011;7653;48.994;9.212;2022-11-21T17:54:19;6.17;;;2.87;;
15104;SDS011;7653;48.994;9.212;2022-11-21T17:56:45;5.30;;;2.93;;
15104;SDS011;7653;48.994;9.212;2022-11-21T17:59:12;5.20;;;2.63;;
15104;SDS011;7653;48.994;9.212;2022-11-21T18:01:40;5.37;;;2.50;;
15104;SDS011;7653;48.994;9.212;2022-11-21T18:04:07;4.77;;;2.70;;
15104;SDS011;7653;48.994;9.212;2022-11-21T18:06:37;6.67;;;2.90;;
15104;SDS011;7653;48.994;9.212;2022-11-21T18:09:06;5.73;;;3.27;;
15104;SDS011;7653;48.994;9.212;2022-11-21T18:11:34;7.90;;;3.77;;
15104;SDS011;7653;48.994;9.212;2022-11-21T18:14:02;6.27;;;4.87;;
15104;SDS011;7653;48.994;9.212;2022-11-21T18:16:29;6.20;;;4.77;;
15104;SDS011;7653;48.994;9.212;2022-11-21T18:18:56;10.87;;;5.57;;
15104;SDS011;7653;48.994;9.212;2022-11-21T18:21:23;5.03;;;4.50;;
15104;SDS011;7653;48.994;9.212;2022-11-21T18:23:52;6.10;;;3.67;;
15104;SDS011;7653;48.994;9.212;2022-11-21T18:26:26;7.83;;;3.70;;
15104;SDS011;7653;48.994;9.212;2022-11-21T18:28:53;5.67;;;3.07;;
15104;SDS011;7653;48.994;9.212;2022-11-21T18:31:21;7.43;;;3.60;;
15104;SDS011;7653;48.994;9.212;2022-11-21T18:33:49;4.37;;;3.40;;
15104;SDS011;7653;48.994;9.212;2022-11-21T18:36:17;7.03;;;4.20;;
15104;SDS011;7653;48.994;9.212;2022-11-21T18:38:43;9.27;;;4.57;;
15104;SDS011;7653;48.994;9.212;2022-11-21T18:41:15;7.73;;;4.27;;
15104;SDS011;7653;48.994;9.212;2022-11-21T18:43:42;5.57;;;3.60;;
15104;SDS011;7653;48.994;9.212;2022-11-21T18:46:10;6.90;;;4.30;;
15104;SDS011;7653;48.994;9.212;2022-11-21T18:48:37;5.87;;;3.83;;
15104;SDS011;7653;48.994;9.212;2022-11-21T18:51:14;6.70;;;4.10;;
15104;SDS011;7653;48.994;9.212;2022-11-21T18:53:41;9.43;;;4.00;;
15104;SDS011;7653;48.994;9.212;2022-11-21T18:56:08;8.07;;;4.30;;
15104;SDS011;7653;48.994;9.212;2022-11-21T18:58:39;8.57;;;5.37;;
15104;SDS011;7653;48.994;9.212;2022-11-21T19:01:07;9.70;;;6.53;;
15104;SDS011;7653;48.994;9.212;2022-11-21T19:03:35;13.47;;;8.57;;
15104;SDS011;7653;48.994;9.212;2022-11-21T19:06:00;12.17;;;7.17;;
15104;SDS011;7653;48.994;9.212;2022-11-21T19:08:26;11.50;;;5.90;;
15104;SDS011;7653;48.994;9.212;2022-11-21T19:10:52;6.47;;;4.43;;
15104;SDS011;7653;48.994;9.212;2022-11-21T19:13:18;6.90;;;4.37;;
15104;SDS011;7653;48.994;9.212;2022-11-21T19:15:45;8.53;;;5.00;;
15104;SDS011;7653;48.994;9.212;2022-11-21T19:18:10;13.23;;;6.93;;
15104;SDS011;7653;48.994;9.212;2022-11-21T19:20:37;8.60;;;4.90;;
15104;SDS011;7653;48.994;9.212;2022-11-21T19:23:04;14.37;;;7.77;;
15104;SDS011;7653;48.994;9.212;2022-11-21T19:25:31;53.00;;;29.40;;
15104;SDS011;7653;48.994;9.212;2022-11-21T19:27:57;20.13;;;11.27;;
15104;SDS011;7653;48.994;9.212;2022-11-21T19:30:24;14.20;;;8.40;;
15104;SDS011;7653;48.994;9.212;2022-11-21T19:32:50;17.07;;;10.63;;
15104;SDS011;7653;48.994;9.212;2022-11-21T19:35:16;17.47;;;10.57;;
15104;SDS011;7653;48.994;9.212;2022-11-21T19:37:47;11.33;;;6.97;;
15104;SDS011;7653;48.994;9.212;2022-11-21T19:40:16;11.90;;;6.50;;
15104;SDS011;7653;48.994;9.212;2022-11-21T19:42:45;10.23;;;5.80;;
15104;SDS011;7653;48.994;9.212;2022-11-21T19:45:10;6.77;;;4.00;;
15104;SDS011;7653;48.994;9.212;2022-11-21T19:47:36;5.73;;;3.30;;
15104;SDS011;7653;48.994;9.212;2022-11-21T19:50:02;5.93;;;3.53;;
15104;SDS011;7653;48.994;9.212;2022-11-21T19:52:28;6.67;;;3.30;;
15104;SDS011;7653;48.994;9.212;2022-11-21T19:54:53;6.67;;;3.40;;
15104;SDS011;7653;48.994;9.212;2022-11-21T19:57:19;5.63;;;3.27;;
15104;SDS011;7653;48.994;9.212;2022-11-21T19:59:44;4.70;;;2.90;;
15104;SDS011;7653;48.994;9.212;2022-11-21T20:02:14;6.13;;;3.37;;
15104;SDS011;7653;48.994;9.212;2022-11-21T20:04:42;5.40;;;3.50;;
15104;SDS011;7653;48.994;9.212;2022-11-21T20:07:10;5.23;;;3.47;;
15104;SDS011;7653;48.994;9.212;2022-11-21T20:09:36;6.70;;;3.67;;
15104;SDS011;7653;48.994;9.212;2022-11-21T20:12:02;7.73;;;3.83;;
15104;SDS011;7653;48.994;9.212;2022-11-21T20:14:28;9.30;;;4.17;;
15104;SDS011;7653;48.994;9.212;2022-11-21T20:16:54;7.73;;;3.83;;
15104;SDS011;7653;48.994;9.212;2022-11-21T20:19:21;6.57;;;3.73;;
15104;SDS011;7653;48.994;9.212;2022-11-21T20:21:48;5.33;;;3.07;;
15104;SDS011;7653;48.994;9.212;2022-11-21T20:24:15;5.60;;;3.43;;
15104;SDS011;7653;48.994;9.212;2022-11-21T20:26:41;5.37;;;3.70;;
15104;SDS011;7653;48.994;9.212;2022-11-21T20:29:09;6.63;;;3.70;;
15104;SDS011;7653;48.994;9.212;2022-11-21T20:31:40;5.77;;;3.53;;
15104;SDS011;7653;48.994;9.212;2022-11-21T20:34:06;6.10;;;4.10;;
15104;SDS011;7653;48.994;9.212;2022-11-21T20:36:36;59.13;;;29.10;;
15104;SDS011;7653;48.994;9.212;2022-11-21T20:39:03;47.23;;;25.57;;
15104;SDS011;7653;48.994;9.212;2022-11-21T20:41:32;55.23;;;30.27;;
15104;SDS011;7653;48.994;9.212;2022-11-21T20:44:03;28.13;;;17.33;;
15104;SDS011;7653;48.994;9.212;2022-11-21T20:46:33;22.47;;;16.07;;
15104;SDS011;7653;48.994;9.212;2022-11-21T20:48:59;15.93;;;9.73;;
15104;SDS011;7653;48.994;9.212;2022-11-21T20:51:26;10.83;;;7.20;;
15104;SDS011;7653;48.994;9.212;2022-11-21T20:53:52;12.90;;;9.10;;
15104;SDS011;7653;48.994;9.212;2022-11-21T20:56:18;10.27;;;7.10;;
15104;SDS011;7653;48.994;9.212;2022-11-21T20:58:47;8.00;;;6.47;;
15104;SDS011;7653;48.994;9.212;2022-11-21T21:01:14;9.20;;;6.47;;
15104;SDS011;7653;48.994;9.212;2022-11-21T21:03:44;8.03;;;4.80;;
15104;SDS011;7653;48.994;9.212;2022-11-21T21:06:11;8.53;;;4.93;;
15104;SDS011;7653;48.994;9.212;2022-11-21T21:08:38;17.43;;;9.50;;
15104;SDS011;7653;48.994;9.212;2022-11-21T21:11:04;12.83;;;6.30;;
15104;SDS011;7653;48.994;9.212;2022-11-21T21:13:33;16.87;;;7.33;;
15104;SDS011;7653;48.994;9.212;2022-11-21T21:16:06;10.73;;;6.30;;
15104;SDS011;7653;48.994;9.212;2022-11-21T21:18:36;8.63;;;5.10;;
15104;SDS011;7653;48.994;9.212;2022-11-21T21:21:03;11.73;;;5.57;;
15104;SDS011;7653;48.994;9.212;2022-11-21T21:23:33;7.70;;;4.40;;
15104;SDS011;7653;48.994;9.212;2022-11-21T21:26:11;5.30;;;3.83;;
15104;SDS011;7653;48.994;9.212;2022-11-21T21:28:37;6.10;;;3.77;;
15104;SDS011;7653;48.994;9.212;2022-11-21T21:31:04;5.13;;;3.43;;
15104;SDS011;7653;48.994;9.212;2022-11-21T21:33:35;6.67;;;4.10;;
15104;SDS011;7653;48.994;9.212;2022-11-21T21:36:08;7.93;;;4.50;;
15104;SDS011;7653;48.994;9.212;2022-11-21T21:38:35;6.70;;;3.40;;
15104;SDS011;7653;48.994;9.212;2022-11-21T21:41:08;6.37;;;3.50;;
15104;SDS011;7653;48.994;9.212;2022-11-21T21:43:35;6.60;;;4.20;;
15104;SDS011;7653;48.994;9.212;2022-11-21T21:46:05;7.80;;;4.47;;
15104;SDS011;7653;48.994;9.212;2022-11-21T21:48:32;14.83;;;4.57;;
15104;SDS011;7653;48.994;9.212;2022-11-21T21:53:30;8.03;;;5.60;;
15104;SDS011;7653;48.994;9.212;2022-11-21T21:55:57;9.93;;;5.40;;
15104;SDS011;7653;48.994;9.212;2022-11-21T21:58:24;11.03;;;6.30;;
15104;SDS011;7653;48.994;9.212;2022-11-21T22:00:50;17.87;;;13.70;;
15104;SDS011;7653;48.994;9.212;2022-11-21T22:03:16;13.50;;;7.93;;
15104;SDS011;7653;48.994;9.212;2022-11-21T22:05:42;7.77;;;4.77;;
15104;SDS011;7653;48.994;9.212;2022-11-21T22:08:07;6.10;;;4.47;;
15104;SDS011;7653;48.994;9.212;2022-11-21T22:10:33;12.33;;;5.93;;
15104;SDS011;7653;48.994;9.212;2022-11-21T22:12:59;6.13;;;4.40;;
15104;SDS011;7653;48.994;9.212;2022-11-21T22:15:24;6.53;;;3.90;;
15104;SDS011;7653;48.994;9.212;2022-11-21T22:17:51;5.60;;;4.20;;
15104;SDS011;7653;48.994;9.212;2022-11-21T22:20:17;6.10;;;3.63;;
15104;SDS011;7653;48.994;9.212;2022-11-21T22:22:42;5.63;;;3.13;;
15104;SDS011;7653;48.994;9.212;2022-11-21T22:25:08;6.53;;;3.97;;
15104;SDS011;7653;48.994;9.212;2022-11-21T22:27:34;6.10;;;3.97;;
15104;SDS011;7653;48.994;9.212;2022-11-21T22:29:59;6.03;;;3.70;;
15104;SDS011;7653;48.994;9.212;2022-11-21T22:32:25;4.93;;;3.37;;
15104;SDS011;7653;48.994;9.212;2022-11-21T22:34:51;4.97;;;3.63;;
15104;SDS011;7653;48.994;9.212;2022-11-21T22:37:17;5.43;;;3.47;;
15104;SDS011;7653;48.994;9.212;2022-11-21T22:39:43;5.33;;;3.60;;
15104;SDS011;7653;48.994;9.212;2022-11-21T22:42:09;6.07;;;3.70;;
15104;SDS011;7653;48.994;9.212;2022-11-21T22:44:35;5.53;;;3.70;;
15104;SDS011;7653;48.994;9.212;2022-11-21T22:47:01;9.50;;;3.93;;
15104;SDS011;7653;48.994;9.212;2022-11-21T22:49:26;6.07;;;3.73;;
15104;SDS011;7653;48.994;9.212;2022-11-21T22:51:52;4.73;;;3.30;;
15104;SDS011;7653;48.994;9.212;2022-11-21T22:54:18;5.87;;;3.40;;
15104;SDS011;7653;48.994;9.212;2022-11-21T22:56:43;6.57;;;3.63;;
15104;SDS011;7653;48.994;9.212;2022-11-21T22:59:12;6.60;;;3.73;;
15104;SDS011;7653;48.994;9.212;2022-11-21T23:01:38;5.87;;;3.63;;
15104;SDS011;7653;48.994;9.212;2022-11-21T23:04:03;6.00;;;3.70;;
15104;SDS011;7653;48.994;9.212;2022-11-21T23:06:29;6.23;;;3.77;;
15104;SDS011;7653;48.994;9.212;2022-11-21T23:08:55;15.20;;;7.47;;
15104;SDS011;7653;48.994;9.212;2022-11-21T23:11:22;15.40;;;8.10;;
15104;SDS011;7653;48.994;9.212;2022-11-21T23:13:53;11.37;;;6.40;;
15104;SDS011;7653;48.994;9.212;2022-11-21T23:16:19;8.30;;;5.07;;
15104;SDS011;7653;48.994;9.212;2022-11-21T23:18:45;6.87;;;4.37;;
15104;SDS011;7653;48.994;9.212;2022-11-21T23:21:12;7.30;;;4.57;;
15104;SDS011;7653;48.994;9.212;2022-11-21T23:23:38;7.20;;;4.30;;
15104;SDS011;7653;48.994;9.212;2022-11-21T23:26:05;7.57;;;4.70;;
15104;SDS011;7653;48.994;9.212;2022-11-21T23:28:31;6.60;;;4.40;;
15104;SDS011;7653;48.994;9.212;2022-11-21T23:30:57;5.23;;;4.23;;
15104;SDS011;7653;48.994;9.212;2022-11-21T23:33:23;7.83;;;4.57;;
15104;SDS011;7653;48.994;9.212;2022-11-21T23:35:49;8.03;;;5.27;;
15104;SDS011;7653;48.994;9.212;2022-11-21T23:38:16;8.07;;;4.70;;
15104;SDS011;7653;48.994;9.212;2022-11-21T23:40:45;7.60;;;5.17;;
15104;SDS011;7653;48.994;9.212;2022-11-21T23:43:12;9.20;;;4.67;;
15104;SDS011;7653;48.994;9.212;2022-11-21T23:45:39;8.13;;;4.33;;
15104;SDS011;7653;48.994;9.212;2022-11-21T23:48:05;8.47;;;4.87;;
15104;SDS011;7653;48.994;9.212;2022-11-21T23:50:31;6.43;;;3.87;;
15104;SDS011;7653;48.994;9.212;2022-11-21T23:52:58;6.90;;;4.13;;
15104;SDS011;7653;48.994;9.212;2022-11-21T23:55:24;6.47;;;4.50;;
15104;SDS011;7653;48.994;9.212;2022-11-21T23:57:49;5.63;;;4.53;;
